sensor_id;sensor_type;location;lat;lon;timestamp;temperature;humidity
14555;DHT22;7364;50.870;4.722;2022-10-19T00:01:33;14.30;99.90
14555;DHT22;7364;50.870;4.722;2022-10-19T00:04:03;14.30;99.90
14555;DHT22;7364;50.870;4.722;2022-10-19T00:06:32;14.40;99.90
14555;DHT22;7364;50.870;4.722;2022-10-19T00:09:01;14.20;99.90
14555;DHT22;7364;50.870;4.722;2022-10-19T00:11:31;14.20;99.90
14555;DHT22;7364;50.870;4.722;2022-10-19T00:14:00;14.00;99.90
14555;DHT22;7364;50.870;4.722;2022-10-19T00:16:29;13.90;99.90
14555;DHT22;7364;50.870;4.722;2022-10-19T00:18:57;13.80;99.90
14555;DHT22;7364;50.870;4.722;2022-10-19T00:21:26;13.70;99.90
14555;DHT22;7364;50.870;4.722;2022-10-19T00:23:54;13.50;99.90
14555;DHT22;7364;50.870;4.722;2022-10-19T00:26:21;13.50;99.90
14555;DHT22;7364;50.870;4.722;2022-10-19T00:28:50;13.50;99.90
14555;DHT22;7364;50.870;4.722;2022-10-19T00:31:19;13.60;99.90
14555;DHT22;7364;50.870;4.722;2022-10-19T00:33:46;13.80;99.90
14555;DHT22;7364;50.870;4.722;2022-10-19T00:36:15;13.80;99.90
14555;DHT22;7364;50.870;4.722;2022-10-19T00:38:44;13.80;99.90
14555;DHT22;7364;50.870;4.722;2022-10-19T00:41:11;13.50;99.90
14555;DHT22;7364;50.870;4.722;2022-10-19T00:43:58;13.60;99.90
14555;DHT22;7364;50.870;4.722;2022-10-19T00:46:27;13.60;99.90
14555;DHT22;7364;50.870;4.722;2022-10-19T00:48:58;13.30;99.90
14555;DHT22;7364;50.870;4.722;2022-10-19T00:51:27;13.40;99.90
14555;DHT22;7364;50.870;4.722;2022-10-19T00:53:57;13.60;99.90
14555;DHT22;7364;50.870;4.722;2022-10-19T00:56:24;13.80;99.90
14555;DHT22;7364;50.870;4.722;2022-10-19T00:58:51;13.80;99.90
14555;DHT22;7364;50.870;4.722;2022-10-19T01:01:21;13.90;99.90
14555;DHT22;7364;50.870;4.722;2022-10-19T01:03:50;13.80;99.90
14555;DHT22;7364;50.870;4.722;2022-10-19T01:06:18;13.80;99.90
14555;DHT22;7364;50.870;4.722;2022-10-19T01:08:45;13.80;99.90
14555;DHT22;7364;50.870;4.722;2022-10-19T01:11:30;13.80;99.90
14555;DHT22;7364;50.870;4.722;2022-10-19T01:14:09;13.90;99.90
14555;DHT22;7364;50.870;4.722;2022-10-19T01:16:48;13.70;99.90
14555;DHT22;7364;50.870;4.722;2022-10-19T01:19:34;13.40;99.90
14555;DHT22;7364;50.870;4.722;2022-10-19T01:22:12;13.10;99.90
14555;DHT22;7364;50.870;4.722;2022-10-19T01:24:51;13.00;99.90
14555;DHT22;7364;50.870;4.722;2022-10-19T01:27:36;12.80;99.90
14555;DHT22;7364;50.870;4.722;2022-10-19T01:30:12;12.80;99.90
14555;DHT22;7364;50.870;4.722;2022-10-19T01:32:52;12.70;99.90
14555;DHT22;7364;50.870;4.722;2022-10-19T01:35:26;12.80;99.90
14555;DHT22;7364;50.870;4.722;2022-10-19T01:38:04;12.80;99.90
14555;DHT22;7364;50.870;4.722;2022-10-19T01:40:39;12.70;99.90
14555;DHT22;7364;50.870;4.722;2022-10-19T01:43:11;12.60;99.90
14555;DHT22;7364;50.870;4.722;2022-10-19T01:45:47;12.60;99.90
14555;DHT22;7364;50.870;4.722;2022-10-19T01:48:19;12.60;99.90
14555;DHT22;7364;50.870;4.722;2022-10-19T01:50:51;12.70;99.90
14555;DHT22;7364;50.870;4.722;2022-10-19T01:53:20;12.70;99.90
14555;DHT22;7364;50.870;4.722;2022-10-19T01:55:51;12.60;99.90
14555;DHT22;7364;50.870;4.722;2022-10-19T01:58:23;12.70;99.90
14555;DHT22;7364;50.870;4.722;2022-10-19T02:00:56;12.70;99.90
14555;DHT22;7364;50.870;4.722;2022-10-19T02:03:27;12.60;99.90
14555;DHT22;7364;50.870;4.722;2022-10-19T02:05:55;12.70;99.90
14555;DHT22;7364;50.870;4.722;2022-10-19T02:08:27;12.70;99.90
14555;DHT22;7364;50.870;4.722;2022-10-19T02:10:57;12.70;99.90
14555;DHT22;7364;50.870;4.722;2022-10-19T02:13:26;12.70;99.90
14555;DHT22;7364;50.870;4.722;2022-10-19T02:15:56;12.60;99.90
14555;DHT22;7364;50.870;4.722;2022-10-19T02:18:29;12.60;99.90
14555;DHT22;7364;50.870;4.722;2022-10-19T02:20:57;12.60;99.90
14555;DHT22;7364;50.870;4.722;2022-10-19T02:23:26;12.60;99.90
14555;DHT22;7364;50.870;4.722;2022-10-19T02:25:54;12.60;99.90
14555;DHT22;7364;50.870;4.722;2022-10-19T02:28:22;12.60;99.90
14555;DHT22;7364;50.870;4.722;2022-10-19T02:30:49;12.60;99.90
14555;DHT22;7364;50.870;4.722;2022-10-19T02:33:18;12.50;99.90
14555;DHT22;7364;50.870;4.722;2022-10-19T02:35:45;12.40;99.90
14555;DHT22;7364;50.870;4.722;2022-10-19T02:38:15;12.20;99.90
14555;DHT22;7364;50.870;4.722;2022-10-19T02:40:50;12.10;99.90
14555;DHT22;7364;50.870;4.722;2022-10-19T02:43:18;12.10;99.90
14555;DHT22;7364;50.870;4.722;2022-10-19T02:45:53;12.20;99.90
14555;DHT22;7364;50.870;4.722;2022-10-19T02:48:24;12.20;99.90
14555;DHT22;7364;50.870;4.722;2022-10-19T02:50:53;12.20;99.90
14555;DHT22;7364;50.870;4.722;2022-10-19T02:53:22;12.20;99.90
14555;DHT22;7364;50.870;4.722;2022-10-19T02:55:49;12.00;99.90
14555;DHT22;7364;50.870;4.722;2022-10-19T02:58:17;12.00;99.90
14555;DHT22;7364;50.870;4.722;2022-10-19T03:00:44;12.10;99.90
14555;DHT22;7364;50.870;4.722;2022-10-19T03:03:11;12.10;99.90
14555;DHT22;7364;50.870;4.722;2022-10-19T03:05:40;12.10;99.90
14555;DHT22;7364;50.870;4.722;2022-10-19T03:08:07;11.90;99.90
14555;DHT22;7364;50.870;4.722;2022-10-19T03:10:34;12.00;99.90
14555;DHT22;7364;50.870;4.722;2022-10-19T03:13:02;12.00;99.90
14555;DHT22;7364;50.870;4.722;2022-10-19T03:15:29;12.20;99.90
14555;DHT22;7364;50.870;4.722;2022-10-19T03:17:56;12.40;99.90
14555;DHT22;7364;50.870;4.722;2022-10-19T03:20:23;12.40;99.90
14555;DHT22;7364;50.870;4.722;2022-10-19T03:22:52;12.40;99.90
14555;DHT22;7364;50.870;4.722;2022-10-19T03:25:19;12.30;99.90
14555;DHT22;7364;50.870;4.722;2022-10-19T03:27:46;12.50;99.90
14555;DHT22;7364;50.870;4.722;2022-10-19T03:30:13;12.20;99.90
14555;DHT22;7364;50.870;4.722;2022-10-19T03:32:40;12.00;99.90
14555;DHT22;7364;50.870;4.722;2022-10-19T03:35:07;11.90;99.90
14555;DHT22;7364;50.870;4.722;2022-10-19T03:37:34;11.90;99.90
14555;DHT22;7364;50.870;4.722;2022-10-19T03:40:04;11.90;99.90
14555;DHT22;7364;50.870;4.722;2022-10-19T03:42:31;11.90;99.90
14555;DHT22;7364;50.870;4.722;2022-10-19T03:44:58;12.00;99.90
14555;DHT22;7364;50.870;4.722;2022-10-19T03:47:25;11.90;99.90
14555;DHT22;7364;50.870;4.722;2022-10-19T03:49:52;11.90;99.90
14555;DHT22;7364;50.870;4.722;2022-10-19T03:52:19;11.90;99.90
14555;DHT22;7364;50.870;4.722;2022-10-19T03:54:48;11.80;99.90
14555;DHT22;7364;50.870;4.722;2022-10-19T03:57:17;12.00;99.90
14555;DHT22;7364;50.870;4.722;2022-10-19T03:59:45;11.90;99.90
14555;DHT22;7364;50.870;4.722;2022-10-19T04:02:12;11.70;99.90
14555;DHT22;7364;50.870;4.722;2022-10-19T04:04:39;11.70;99.90
14555;DHT22;7364;50.870;4.722;2022-10-19T04:07:06;11.80;99.90
14555;DHT22;7364;50.870;4.722;2022-10-19T04:09:33;11.80;99.90
14555;DHT22;7364;50.870;4.722;2022-10-19T04:12:00;11.70;99.90
14555;DHT22;7364;50.870;4.722;2022-10-19T04:14:30;11.60;99.90
14555;DHT22;7364;50.870;4.722;2022-10-19T04:16:57;11.60;99.90
14555;DHT22;7364;50.870;4.722;2022-10-19T04:19:24;11.60;99.90
14555;DHT22;7364;50.870;4.722;2022-10-19T04:21:51;11.80;99.90
14555;DHT22;7364;50.870;4.722;2022-10-19T04:24:18;11.80;99.90
14555;DHT22;7364;50.870;4.722;2022-10-19T04:26:46;11.80;99.90
14555;DHT22;7364;50.870;4.722;2022-10-19T04:29:15;11.70;99.90
14555;DHT22;7364;50.870;4.722;2022-10-19T04:31:47;11.60;99.90
14555;DHT22;7364;50.870;4.722;2022-10-19T04:34:14;11.50;99.90
14555;DHT22;7364;50.870;4.722;2022-10-19T04:36:41;11.50;99.90
14555;DHT22;7364;50.870;4.722;2022-10-19T04:39:09;11.40;99.90
14555;DHT22;7364;50.870;4.722;2022-10-19T04:41:37;11.50;99.90
14555;DHT22;7364;50.870;4.722;2022-10-19T04:44:05;11.50;99.90
14555;DHT22;7364;50.870;4.722;2022-10-19T04:46:32;11.40;99.90
14555;DHT22;7364;50.870;4.722;2022-10-19T04:49:01;11.40;99.90
14555;DHT22;7364;50.870;4.722;2022-10-19T04:51:29;11.40;99.90
14555;DHT22;7364;50.870;4.722;2022-10-19T04:53:56;11.40;99.90
14555;DHT22;7364;50.870;4.722;2022-10-19T04:56:24;11.40;99.90
14555;DHT22;7364;50.870;4.722;2022-10-19T04:58:54;11.40;99.90
14555;DHT22;7364;50.870;4.722;2022-10-19T05:01:23;11.30;99.90
14555;DHT22;7364;50.870;4.722;2022-10-19T05:03:53;11.30;99.90
14555;DHT22;7364;50.870;4.722;2022-10-19T05:06:23;11.30;99.90
14555;DHT22;7364;50.870;4.722;2022-10-19T05:08:50;11.30;99.90
14555;DHT22;7364;50.870;4.722;2022-10-19T05:11:18;11.20;99.90
14555;DHT22;7364;50.870;4.722;2022-10-19T05:13:46;11.20;99.90
14555;DHT22;7364;50.870;4.722;2022-10-19T05:16:16;11.30;99.90
14555;DHT22;7364;50.870;4.722;2022-10-19T05:18:46;11.40;99.90
14555;DHT22;7364;50.870;4.722;2022-10-19T05:21:15;11.30;99.90
14555;DHT22;7364;50.870;4.722;2022-10-19T05:23:44;11.20;99.90
14555;DHT22;7364;50.870;4.722;2022-10-19T05:26:13;11.10;99.90
14555;DHT22;7364;50.870;4.722;2022-10-19T05:28:42;11.00;99.90
14555;DHT22;7364;50.870;4.722;2022-10-19T05:31:11;11.00;99.90
14555;DHT22;7364;50.870;4.722;2022-10-19T05:33:39;10.90;99.90
14555;DHT22;7364;50.870;4.722;2022-10-19T05:36:14;10.90;99.90
14555;DHT22;7364;50.870;4.722;2022-10-19T05:38:44;10.80;99.90
14555;DHT22;7364;50.870;4.722;2022-10-19T05:41:12;10.90;99.90
14555;DHT22;7364;50.870;4.722;2022-10-19T05:43:40;11.00;99.90
14555;DHT22;7364;50.870;4.722;2022-10-19T05:46:10;11.00;99.90
14555;DHT22;7364;50.870;4.722;2022-10-19T05:48:39;11.00;99.90
14555;DHT22;7364;50.870;4.722;2022-10-19T05:51:08;11.00;99.90
14555;DHT22;7364;50.870;4.722;2022-10-19T05:53:36;11.00;99.90
14555;DHT22;7364;50.870;4.722;2022-10-19T05:56:06;11.00;99.90
14555;DHT22;7364;50.870;4.722;2022-10-19T05:58:34;10.90;99.90
14555;DHT22;7364;50.870;4.722;2022-10-19T06:01:02;11.00;99.90
14555;DHT22;7364;50.870;4.722;2022-10-19T06:03:29;11.10;99.90
14555;DHT22;7364;50.870;4.722;2022-10-19T06:05:57;11.10;99.90
14555;DHT22;7364;50.870;4.722;2022-10-19T06:08:24;11.20;99.90
14555;DHT22;7364;50.870;4.722;2022-10-19T06:10:52;11.20;99.90
14555;DHT22;7364;50.870;4.722;2022-10-19T06:13:21;11.20;99.90
14555;DHT22;7364;50.870;4.722;2022-10-19T06:15:51;11.10;99.90
14555;DHT22;7364;50.870;4.722;2022-10-19T06:18:18;11.00;99.90
14555;DHT22;7364;50.870;4.722;2022-10-19T06:20:50;10.90;99.90
14555;DHT22;7364;50.870;4.722;2022-10-19T06:23:17;10.80;99.90
14555;DHT22;7364;50.870;4.722;2022-10-19T06:25:44;10.70;99.90
14555;DHT22;7364;50.870;4.722;2022-10-19T06:28:12;10.80;99.90
14555;DHT22;7364;50.870;4.722;2022-10-19T06:30:40;10.70;99.90
14555;DHT22;7364;50.870;4.722;2022-10-19T06:33:08;10.70;99.90
14555;DHT22;7364;50.870;4.722;2022-10-19T06:35:35;10.80;99.90
14555;DHT22;7364;50.870;4.722;2022-10-19T06:38:04;11.00;99.90
14555;DHT22;7364;50.870;4.722;2022-10-19T06:40:31;11.00;99.90
14555;DHT22;7364;50.870;4.722;2022-10-19T06:42:58;11.10;99.90
14555;DHT22;7364;50.870;4.722;2022-10-19T06:45:25;11.20;99.90
14555;DHT22;7364;50.870;4.722;2022-10-19T06:47:54;11.10;99.90
14555;DHT22;7364;50.870;4.722;2022-10-19T06:50:21;11.00;99.90
14555;DHT22;7364;50.870;4.722;2022-10-19T06:52:48;10.80;99.90
14555;DHT22;7364;50.870;4.722;2022-10-19T06:55:15;10.80;99.90
14555;DHT22;7364;50.870;4.722;2022-10-19T06:57:43;10.90;99.90
14555;DHT22;7364;50.870;4.722;2022-10-19T07:00:11;11.00;99.90
14555;DHT22;7364;50.870;4.722;2022-10-19T07:02:39;10.90;99.90
14555;DHT22;7364;50.870;4.722;2022-10-19T07:05:08;11.00;99.90
14555;DHT22;7364;50.870;4.722;2022-10-19T07:07:35;11.10;99.90
14555;DHT22;7364;50.870;4.722;2022-10-19T07:10:03;11.10;99.90
14555;DHT22;7364;50.870;4.722;2022-10-19T07:12:30;11.00;99.90
14555;DHT22;7364;50.870;4.722;2022-10-19T07:14:58;11.30;99.90
14555;DHT22;7364;50.870;4.722;2022-10-19T07:17:25;11.40;99.90
14555;DHT22;7364;50.870;4.722;2022-10-19T07:19:52;11.60;99.90
14555;DHT22;7364;50.870;4.722;2022-10-19T07:22:21;11.50;99.90
14555;DHT22;7364;50.870;4.722;2022-10-19T07:24:48;11.80;99.90
14555;DHT22;7364;50.870;4.722;2022-10-19T07:27:16;11.70;99.90
14555;DHT22;7364;50.870;4.722;2022-10-19T07:29:44;11.90;99.90
14555;DHT22;7364;50.870;4.722;2022-10-19T07:32:11;11.80;99.90
14555;DHT22;7364;50.870;4.722;2022-10-19T07:34:38;11.90;99.90
14555;DHT22;7364;50.870;4.722;2022-10-19T07:37:06;12.00;99.90
14555;DHT22;7364;50.870;4.722;2022-10-19T07:39:36;12.20;99.90
14555;DHT22;7364;50.870;4.722;2022-10-19T07:42:04;12.30;99.90
14555;DHT22;7364;50.870;4.722;2022-10-19T07:44:31;12.60;99.90
14555;DHT22;7364;50.870;4.722;2022-10-19T07:46:58;12.80;99.90
14555;DHT22;7364;50.870;4.722;2022-10-19T07:49:25;13.00;99.90
14555;DHT22;7364;50.870;4.722;2022-10-19T07:51:54;13.10;99.90
14555;DHT22;7364;50.870;4.722;2022-10-19T07:54:21;13.20;99.90
14555;DHT22;7364;50.870;4.722;2022-10-19T07:56:50;13.40;99.90
14555;DHT22;7364;50.870;4.722;2022-10-19T07:59:17;13.50;99.90
14555;DHT22;7364;50.870;4.722;2022-10-19T08:01:45;13.50;99.90
14555;DHT22;7364;50.870;4.722;2022-10-19T08:04:13;13.60;99.90
14555;DHT22;7364;50.870;4.722;2022-10-19T08:06:42;13.50;99.90
14555;DHT22;7364;50.870;4.722;2022-10-19T08:09:09;13.50;99.90
14555;DHT22;7364;50.870;4.722;2022-10-19T08:11:36;13.60;99.90
14555;DHT22;7364;50.870;4.722;2022-10-19T08:14:05;13.70;99.90
14555;DHT22;7364;50.870;4.722;2022-10-19T08:16:33;13.90;99.90
14555;DHT22;7364;50.870;4.722;2022-10-19T08:19:05;13.90;99.90
14555;DHT22;7364;50.870;4.722;2022-10-19T08:21:33;13.70;99.90
14555;DHT22;7364;50.870;4.722;2022-10-19T08:24:01;13.70;99.90
14555;DHT22;7364;50.870;4.722;2022-10-19T08:26:30;13.80;99.90
14555;DHT22;7364;50.870;4.722;2022-10-19T08:29:01;13.70;99.90
14555;DHT22;7364;50.870;4.722;2022-10-19T08:31:30;13.60;99.90
14555;DHT22;7364;50.870;4.722;2022-10-19T08:33:58;13.70;99.90
14555;DHT22;7364;50.870;4.722;2022-10-19T08:36:25;14.00;99.90
14555;DHT22;7364;50.870;4.722;2022-10-19T08:38:56;14.00;99.90
14555;DHT22;7364;50.870;4.722;2022-10-19T08:41:29;14.10;99.90
14555;DHT22;7364;50.870;4.722;2022-10-19T08:44:11;14.10;99.90
14555;DHT22;7364;50.870;4.722;2022-10-19T08:46:48;14.30;99.90
14555;DHT22;7364;50.870;4.722;2022-10-19T08:49:22;14.50;99.90
14555;DHT22;7364;50.870;4.722;2022-10-19T08:51:56;14.50;99.90
14555;DHT22;7364;50.870;4.722;2022-10-19T08:54:29;14.50;99.90
14555;DHT22;7364;50.870;4.722;2022-10-19T08:57:07;14.70;99.90
14555;DHT22;7364;50.870;4.722;2022-10-19T08:59:44;15.00;99.90
14555;DHT22;7364;50.870;4.722;2022-10-19T09:02:18;15.00;99.90
14555;DHT22;7364;50.870;4.722;2022-10-19T09:04:49;15.00;99.90
14555;DHT22;7364;50.870;4.722;2022-10-19T09:07:25;15.30;99.90
14555;DHT22;7364;50.870;4.722;2022-10-19T09:09:55;15.70;99.90
14555;DHT22;7364;50.870;4.722;2022-10-19T09:12:44;16.00;99.90
14555;DHT22;7364;50.870;4.722;2022-10-19T09:15:17;15.90;99.90
14555;DHT22;7364;50.870;4.722;2022-10-19T09:17:46;16.30;99.90
14555;DHT22;7364;50.870;4.722;2022-10-19T09:20:16;16.90;99.90
14555;DHT22;7364;50.870;4.722;2022-10-19T09:22:45;17.60;99.90
14555;DHT22;7364;50.870;4.722;2022-10-19T09:25:18;17.60;99.90
14555;DHT22;7364;50.870;4.722;2022-10-19T09:27:48;18.10;99.90
14555;DHT22;7364;50.870;4.722;2022-10-19T09:30:22;18.50;99.90
14555;DHT22;7364;50.870;4.722;2022-10-19T09:32:58;18.00;99.90
14555;DHT22;7364;50.870;4.722;2022-10-19T09:35:28;18.10;99.90
14555;DHT22;7364;50.870;4.722;2022-10-19T09:37:57;18.50;99.90
14555;DHT22;7364;50.870;4.722;2022-10-19T09:40:27;19.00;99.90
14555;DHT22;7364;50.870;4.722;2022-10-19T09:42:55;19.60;99.90
14555;DHT22;7364;50.870;4.722;2022-10-19T09:45:37;19.60;99.90
14555;DHT22;7364;50.870;4.722;2022-10-19T09:48:17;20.10;99.90
14555;DHT22;7364;50.870;4.722;2022-10-19T09:50:51;20.30;99.90
14555;DHT22;7364;50.870;4.722;2022-10-19T09:53:20;20.50;99.90
14555;DHT22;7364;50.870;4.722;2022-10-19T09:55:56;20.40;99.90
14555;DHT22;7364;50.870;4.722;2022-10-19T09:58:25;20.50;99.90
14555;DHT22;7364;50.870;4.722;2022-10-19T10:00:53;20.20;99.90
14555;DHT22;7364;50.870;4.722;2022-10-19T10:03:25;20.50;99.90
14555;DHT22;7364;50.870;4.722;2022-10-19T10:05:55;21.00;99.90
14555;DHT22;7364;50.870;4.722;2022-10-19T10:08:25;20.60;99.90
14555;DHT22;7364;50.870;4.722;2022-10-19T10:10:58;20.90;99.90
14555;DHT22;7364;50.870;4.722;2022-10-19T10:13:29;21.20;99.90
14555;DHT22;7364;50.870;4.722;2022-10-19T10:15:59;21.30;99.90
14555;DHT22;7364;50.870;4.722;2022-10-19T10:18:28;21.60;99.90
14555;DHT22;7364;50.870;4.722;2022-10-19T10:21:00;21.80;99.90
14555;DHT22;7364;50.870;4.722;2022-10-19T10:23:30;21.30;99.90
14555;DHT22;7364;50.870;4.722;2022-10-19T10:26:01;22.00;99.90
14555;DHT22;7364;50.870;4.722;2022-10-19T10:28:30;21.50;99.90
14555;DHT22;7364;50.870;4.722;2022-10-19T10:31:02;22.10;99.90
14555;DHT22;7364;50.870;4.722;2022-10-19T10:33:34;22.70;99.10
14555;DHT22;7364;50.870;4.722;2022-10-19T10:36:04;23.10;98.20
14555;DHT22;7364;50.870;4.722;2022-10-19T10:38:37;21.90;99.00
14555;DHT22;7364;50.870;4.722;2022-10-19T10:41:10;21.90;99.20
14555;DHT22;7364;50.870;4.722;2022-10-19T10:43:49;22.50;98.50
14555;DHT22;7364;50.870;4.722;2022-10-19T10:46:20;22.70;98.20
14555;DHT22;7364;50.870;4.722;2022-10-19T10:48:56;22.80;98.00
14555;DHT22;7364;50.870;4.722;2022-10-19T10:51:30;22.90;98.10
14555;DHT22;7364;50.870;4.722;2022-10-19T10:54:13;23.40;97.30
14555;DHT22;7364;50.870;4.722;2022-10-19T10:56:43;24.00;96.60
14555;DHT22;7364;50.870;4.722;2022-10-19T10:59:14;24.40;95.60
14555;DHT22;7364;50.870;4.722;2022-10-19T11:01:49;24.50;95.10
14555;DHT22;7364;50.870;4.722;2022-10-19T11:04:22;24.60;95.00
14555;DHT22;7364;50.870;4.722;2022-10-19T11:06:56;24.70;94.70
14555;DHT22;7364;50.870;4.722;2022-10-19T11:09:30;24.90;94.40
14555;DHT22;7364;50.870;4.722;2022-10-19T11:12:09;25.10;94.00
14555;DHT22;7364;50.870;4.722;2022-10-19T11:14:43;25.50;93.60
14555;DHT22;7364;50.870;4.722;2022-10-19T11:17:15;25.50;93.40
14555;DHT22;7364;50.870;4.722;2022-10-19T11:19:48;25.20;93.60
14555;DHT22;7364;50.870;4.722;2022-10-19T11:22:30;25.40;93.60
14555;DHT22;7364;50.870;4.722;2022-10-19T11:25:21;25.10;93.80
14555;DHT22;7364;50.870;4.722;2022-10-19T11:27:59;25.40;93.60
14555;DHT22;7364;50.870;4.722;2022-10-19T11:30:35;25.30;93.30
14555;DHT22;7364;50.870;4.722;2022-10-19T11:33:06;25.90;92.90
14555;DHT22;7364;50.870;4.722;2022-10-19T11:35:46;26.30;92.00
14555;DHT22;7364;50.870;4.722;2022-10-19T11:38:39;26.70;91.40
14555;DHT22;7364;50.870;4.722;2022-10-19T11:41:15;26.50;91.50
14555;DHT22;7364;50.870;4.722;2022-10-19T11:43:54;26.50;91.40
14555;DHT22;7364;50.870;4.722;2022-10-19T11:46:25;26.90;90.40
14555;DHT22;7364;50.870;4.722;2022-10-19T11:49:05;27.10;90.20
14555;DHT22;7364;50.870;4.722;2022-10-19T11:51:39;27.30;88.70
14555;DHT22;7364;50.870;4.722;2022-10-19T11:54:24;26.90;88.90
14555;DHT22;7364;50.870;4.722;2022-10-19T11:56:58;26.90;89.20
14555;DHT22;7364;50.870;4.722;2022-10-19T11:59:34;26.70;89.20
14555;DHT22;7364;50.870;4.722;2022-10-19T12:02:16;26.40;90.10
14555;DHT22;7364;50.870;4.722;2022-10-19T12:04:50;26.40;89.40
14555;DHT22;7364;50.870;4.722;2022-10-19T12:07:44;26.30;89.70
14555;DHT22;7364;50.870;4.722;2022-10-19T12:10:23;26.20;90.10
14555;DHT22;7364;50.870;4.722;2022-10-19T12:12:54;26.20;90.00
14555;DHT22;7364;50.870;4.722;2022-10-19T12:15:28;26.20;90.10
14555;DHT22;7364;50.870;4.722;2022-10-19T12:18:00;24.90;91.10
14555;DHT22;7364;50.870;4.722;2022-10-19T12:20:34;24.80;91.40
14555;DHT22;7364;50.870;4.722;2022-10-19T12:23:16;24.70;91.40
14555;DHT22;7364;50.870;4.722;2022-10-19T12:25:46;24.90;91.30
14555;DHT22;7364;50.870;4.722;2022-10-19T12:28:20;24.60;91.60
14555;DHT22;7364;50.870;4.722;2022-10-19T12:30:50;24.60;91.40
14555;DHT22;7364;50.870;4.722;2022-10-19T12:33:22;24.60;91.40
14555;DHT22;7364;50.870;4.722;2022-10-19T12:36:02;24.60;91.10
14555;DHT22;7364;50.870;4.722;2022-10-19T12:38:40;24.70;91.40
14555;DHT22;7364;50.870;4.722;2022-10-19T12:41:17;24.80;91.50
14555;DHT22;7364;50.870;4.722;2022-10-19T12:43:57;24.80;91.40
14555;DHT22;7364;50.870;4.722;2022-10-19T12:46:32;24.80;91.50
14555;DHT22;7364;50.870;4.722;2022-10-19T12:49:44;25.20;91.60
14555;DHT22;7364;50.870;4.722;2022-10-19T12:52:13;25.70;90.90
14555;DHT22;7364;50.870;4.722;2022-10-19T12:54:42;26.50;89.00
14555;DHT22;7364;50.870;4.722;2022-10-19T12:57:29;27.00;87.70
14555;DHT22;7364;50.870;4.722;2022-10-19T13:00:05;27.60;86.40
14555;DHT22;7364;50.870;4.722;2022-10-19T13:02:44;27.60;85.30
14555;DHT22;7364;50.870;4.722;2022-10-19T13:05:19;28.10;83.20
14555;DHT22;7364;50.870;4.722;2022-10-19T13:07:47;28.30;83.00
14555;DHT22;7364;50.870;4.722;2022-10-19T13:10:20;28.70;80.90
14555;DHT22;7364;50.870;4.722;2022-10-19T13:12:49;29.20;80.10
14555;DHT22;7364;50.870;4.722;2022-10-19T13:24:39;29.80;76.40
14555;DHT22;7364;50.870;4.722;2022-10-19T13:27:27;29.90;75.90
14555;DHT22;7364;50.870;4.722;2022-10-19T13:30:01;30.10;75.10
14555;DHT22;7364;50.870;4.722;2022-10-19T13:32:38;30.40;74.30
14555;DHT22;7364;50.870;4.722;2022-10-19T13:35:25;30.50;73.90
14555;DHT22;7364;50.870;4.722;2022-10-19T13:38:19;30.50;74.10
14555;DHT22;7364;50.870;4.722;2022-10-19T13:41:10;30.50;73.60
14555;DHT22;7364;50.870;4.722;2022-10-19T13:43:58;30.20;73.60
14555;DHT22;7364;50.870;4.722;2022-10-19T13:46:39;29.50;74.40
14555;DHT22;7364;50.870;4.722;2022-10-19T13:52:17;27.70;78.40
14555;DHT22;7364;50.870;4.722;2022-10-19T13:57:56;26.30;82.20
14555;DHT22;7364;50.870;4.722;2022-10-19T14:00:33;25.90;82.90
14555;DHT22;7364;50.870;4.722;2022-10-19T14:03:24;25.30;84.90
14555;DHT22;7364;50.870;4.722;2022-10-19T14:09:11;24.30;88.60
14555;DHT22;7364;50.870;4.722;2022-10-19T14:11:43;24.20;89.30
14555;DHT22;7364;50.870;4.722;2022-10-19T14:14:14;24.20;89.60
14555;DHT22;7364;50.870;4.722;2022-10-19T14:16:49;24.00;90.00
14555;DHT22;7364;50.870;4.722;2022-10-19T14:19:28;23.60;90.50
14555;DHT22;7364;50.870;4.722;2022-10-19T14:21:57;23.70;90.70
14555;DHT22;7364;50.870;4.722;2022-10-19T14:24:30;23.40;91.20
14555;DHT22;7364;50.870;4.722;2022-10-19T14:27:00;23.40;91.40
14555;DHT22;7364;50.870;4.722;2022-10-19T14:29:32;23.40;91.60
14555;DHT22;7364;50.870;4.722;2022-10-19T14:32:03;23.00;91.80
14555;DHT22;7364;50.870;4.722;2022-10-19T14:34:30;22.70;92.50
14555;DHT22;7364;50.870;4.722;2022-10-19T14:36:57;22.70;92.80
14555;DHT22;7364;50.870;4.722;2022-10-19T14:39:29;22.80;92.70
14555;DHT22;7364;50.870;4.722;2022-10-19T14:42:02;22.90;92.80
14555;DHT22;7364;50.870;4.722;2022-10-19T14:44:40;23.00;92.70
14555;DHT22;7364;50.870;4.722;2022-10-19T14:47:20;22.90;93.00
14555;DHT22;7364;50.870;4.722;2022-10-19T14:49:48;22.80;93.30
14555;DHT22;7364;50.870;4.722;2022-10-19T14:52:19;22.80;93.30
14555;DHT22;7364;50.870;4.722;2022-10-19T14:54:51;22.90;93.30
14555;DHT22;7364;50.870;4.722;2022-10-19T14:57:23;22.90;93.10
14555;DHT22;7364;50.870;4.722;2022-10-19T14:59:55;22.40;93.60
14555;DHT22;7364;50.870;4.722;2022-10-19T15:02:26;22.00;94.40
14555;DHT22;7364;50.870;4.722;2022-10-19T15:04:57;22.00;94.60
14555;DHT22;7364;50.870;4.722;2022-10-19T15:07:29;22.10;94.60
14555;DHT22;7364;50.870;4.722;2022-10-19T15:10:03;22.20;94.60
14555;DHT22;7364;50.870;4.722;2022-10-19T15:12:34;22.20;94.50
14555;DHT22;7364;50.870;4.722;2022-10-19T15:15:07;22.30;94.40
14555;DHT22;7364;50.870;4.722;2022-10-19T15:17:49;22.30;94.50
14555;DHT22;7364;50.870;4.722;2022-10-19T15:20:26;22.10;94.80
14555;DHT22;7364;50.870;4.722;2022-10-19T15:22:54;21.90;95.20
14555;DHT22;7364;50.870;4.722;2022-10-19T15:25:28;21.80;95.40
14555;DHT22;7364;50.870;4.722;2022-10-19T15:27:57;21.80;95.50
14555;DHT22;7364;50.870;4.722;2022-10-19T15:30:27;21.70;95.30
14555;DHT22;7364;50.870;4.722;2022-10-19T15:33:09;21.60;95.70
14555;DHT22;7364;50.870;4.722;2022-10-19T15:35:42;21.60;95.80
14555;DHT22;7364;50.870;4.722;2022-10-19T15:38:18;21.50;95.90
14555;DHT22;7364;50.870;4.722;2022-10-19T15:40:46;21.40;96.20
14555;DHT22;7364;50.870;4.722;2022-10-19T15:43:34;21.20;96.70
14555;DHT22;7364;50.870;4.722;2022-10-19T15:46:03;20.90;97.10
14555;DHT22;7364;50.870;4.722;2022-10-19T15:48:51;20.90;97.30
14555;DHT22;7364;50.870;4.722;2022-10-19T15:51:40;20.90;97.50
14555;DHT22;7364;50.870;4.722;2022-10-19T15:54:09;20.80;97.80
14555;DHT22;7364;50.870;4.722;2022-10-19T15:56:38;20.70;97.90
14555;DHT22;7364;50.870;4.722;2022-10-19T15:59:12;20.70;98.00
14555;DHT22;7364;50.870;4.722;2022-10-19T16:01:41;20.60;98.40
14555;DHT22;7364;50.870;4.722;2022-10-19T16:04:10;20.40;98.60
14555;DHT22;7364;50.870;4.722;2022-10-19T16:06:39;20.40;98.80
14555;DHT22;7364;50.870;4.722;2022-10-19T16:09:12;20.30;99.20
14555;DHT22;7364;50.870;4.722;2022-10-19T16:11:39;20.20;99.40
14555;DHT22;7364;50.870;4.722;2022-10-19T16:14:06;20.10;99.80
14555;DHT22;7364;50.870;4.722;2022-10-19T16:16:33;20.00;99.90
14555;DHT22;7364;50.870;4.722;2022-10-19T16:19:00;20.00;99.90
14555;DHT22;7364;50.870;4.722;2022-10-19T16:21:32;19.90;99.90
14555;DHT22;7364;50.870;4.722;2022-10-19T16:24:00;19.80;99.90
14555;DHT22;7364;50.870;4.722;2022-10-19T16:26:28;19.70;99.90
14555;DHT22;7364;50.870;4.722;2022-10-19T16:28:56;19.60;99.90
14555;DHT22;7364;50.870;4.722;2022-10-19T16:31:24;19.50;99.90